sensor_id;sensor_type;location;lat;lon;timestamp;P1;durP1;ratioP1;P2;durP2;ratioP2
62633;SDS011;48704;50.534;6.442;2023-06-14T00:00:52;6.55;;;5.18;;
62633;SDS011;48704;50.534;6.442;2023-06-14T00:03:18;7.53;;;5.18;;
62633;SDS011;48704;50.534;6.442;2023-06-14T00:05:47;7.63;;;5.70;;
62633;SDS011;48704;50.534;6.442;2023-06-14T00:08:13;6.88;;;5.50;;
62633;SDS011;48704;50.534;6.442;2023-06-14T00:10:38;11.73;;;5.82;;
62633;SDS011;48704;50.534;6.442;2023-06-14T00:13:06;7.88;;;5.88;;
62633;SDS011;48704;50.534;6.442;2023-06-14T00:15:32;9.13;;;5.32;;
62633;SDS011;48704;50.534;6.442;2023-06-14T00:17:58;5.75;;;4.70;;
62633;SDS011;48704;50.534;6.442;2023-06-14T00:20:26;8.15;;;5.63;;
62633;SDS011;48704;50.534;6.442;2023-06-14T00:22:52;7.35;;;6.00;;
62633;SDS011;48704;50.534;6.442;2023-06-14T00:25:19;9.80;;;5.90;;
62633;SDS011;48704;50.534;6.442;2023-06-14T00:27:44;7.50;;;5.65;;
62633;SDS011;48704;50.534;6.442;2023-06-14T00:30:10;8.98;;;5.22;;
62633;SDS011;48704;50.534;6.442;2023-06-14T00:32:35;7.25;;;5.70;;
62633;SDS011;48704;50.534;6.442;2023-06-14T00:35:01;7.22;;;5.47;;
62633;SDS011;48704;50.534;6.442;2023-06-14T00:37:26;7.10;;;5.25;;
62633;SDS011;48704;50.534;6.442;2023-06-14T00:39:51;12.98;;;5.78;;
62633;SDS011;48704;50.534;6.442;2023-06-14T00:42:26;6.72;;;5.40;;
62633;SDS011;48704;50.534;6.442;2023-06-14T00:44:52;7.95;;;5.90;;
62633;SDS011;48704;50.534;6.442;2023-06-14T00:47:18;7.03;;;5.45;;
62633;SDS011;48704;50.534;6.442;2023-06-14T00:49:45;8.65;;;6.13;;
62633;SDS011;48704;50.534;6.442;2023-06-14T00:52:10;10.68;;;6.00;;
62633;SDS011;48704;50.534;6.442;2023-06-14T00:54:37;7.72;;;6.10;;
62633;SDS011;48704;50.534;6.442;2023-06-14T00:57:03;7.55;;;5.82;;
62633;SDS011;48704;50.534;6.442;2023-06-14T00:59:28;7.30;;;5.50;;
62633;SDS011;48704;50.534;6.442;2023-06-14T01:01:53;9.05;;;5.63;;
62633;SDS011;48704;50.534;6.442;2023-06-14T01:04:19;7.40;;;6.00;;
62633;SDS011;48704;50.534;6.442;2023-06-14T01:06:57;8.45;;;6.28;;
62633;SDS011;48704;50.534;6.442;2023-06-14T01:15:18;8.50;;;5.68;;
62633;SDS011;48704;50.534;6.442;2023-06-14T01:17:45;7.53;;;5.45;;
62633;SDS011;48704;50.534;6.442;2023-06-14T01:20:16;9.98;;;6.03;;
62633;SDS011;48704;50.534;6.442;2023-06-14T01:22:51;7.60;;;5.80;;
62633;SDS011;48704;50.534;6.442;2023-06-14T01:25:18;8.27;;;5.87;;
62633;SDS011;48704;50.534;6.442;2023-06-14T01:27:51;9.63;;;5.72;;
62633;SDS011;48704;50.534;6.442;2023-06-14T01:30:18;8.02;;;5.78;;
62633;SDS011;48704;50.534;6.442;2023-06-14T01:32:45;7.75;;;6.15;;
62633;SDS011;48704;50.534;6.442;2023-06-14T01:35:11;10.88;;;5.47;;
62633;SDS011;48704;50.534;6.442;2023-06-14T01:37:36;11.02;;;6.30;;
62633;SDS011;48704;50.534;6.442;2023-06-14T01:40:03;8.80;;;5.88;;
62633;SDS011;48704;50.534;6.442;2023-06-14T01:42:32;8.32;;;5.63;;
62633;SDS011;48704;50.534;6.442;2023-06-14T01:45:03;8.10;;;5.70;;
62633;SDS011;48704;50.534;6.442;2023-06-14T01:47:30;8.45;;;5.88;;
62633;SDS011;48704;50.534;6.442;2023-06-14T01:49:56;11.93;;;6.15;;
62633;SDS011;48704;50.534;6.442;2023-06-14T01:52:22;9.45;;;5.93;;
62633;SDS011;48704;50.534;6.442;2023-06-14T01:54:49;6.82;;;5.43;;
62633;SDS011;48704;50.534;6.442;2023-06-14T01:57:14;7.68;;;5.97;;
62633;SDS011;48704;50.534;6.442;2023-06-14T01:59:40;8.27;;;6.00;;
62633;SDS011;48704;50.534;6.442;2023-06-14T02:02:05;8.02;;;5.72;;
62633;SDS011;48704;50.534;6.442;2023-06-14T02:04:30;9.02;;;6.03;;
62633;SDS011;48704;50.534;6.442;2023-06-14T02:06:56;8.15;;;5.93;;
62633;SDS011;48704;50.534;6.442;2023-06-14T02:09:21;10.98;;;6.28;;
62633;SDS011;48704;50.534;6.442;2023-06-14T02:11:46;8.07;;;5.80;;
62633;SDS011;48704;50.534;6.442;2023-06-14T02:14:11;9.73;;;5.90;;
62633;SDS011;48704;50.534;6.442;2023-06-14T02:16:37;8.10;;;6.35;;
62633;SDS011;48704;50.534;6.442;2023-06-14T02:19:04;13.02;;;6.40;;
62633;SDS011;48704;50.534;6.442;2023-06-14T02:21:30;10.38;;;6.32;;
62633;SDS011;48704;50.534;6.442;2023-06-14T02:23:55;8.38;;;6.10;;
62633;SDS011;48704;50.534;6.442;2023-06-14T02:26:21;10.60;;;5.82;;
62633;SDS011;48704;50.534;6.442;2023-06-14T02:28:47;8.73;;;6.03;;
62633;SDS011;48704;50.534;6.442;2023-06-14T02:31:13;8.43;;;6.03;;
62633;SDS011;48704;50.534;6.442;2023-06-14T02:33:38;7.35;;;5.75;;
62633;SDS011;48704;50.534;6.442;2023-06-14T02:36:04;9.55;;;6.63;;
62633;SDS011;48704;50.534;6.442;2023-06-14T02:38:30;8.45;;;5.88;;
62633;SDS011;48704;50.534;6.442;2023-06-14T02:40:55;7.95;;;6.00;;
62633;SDS011;48704;50.534;6.442;2023-06-14T02:43:21;10.68;;;6.82;;
62633;SDS011;48704;50.534;6.442;2023-06-14T02:45:46;10.43;;;6.13;;
62633;SDS011;48704;50.534;6.442;2023-06-14T02:48:11;9.00;;;6.30;;
62633;SDS011;48704;50.534;6.442;2023-06-14T02:50:36;11.20;;;5.88;;
62633;SDS011;48704;50.534;6.442;2023-06-14T02:53:02;8.93;;;5.80;;
62633;SDS011;48704;50.534;6.442;2023-06-14T02:55:28;9.10;;;5.65;;
62633;SDS011;48704;50.534;6.442;2023-06-14T02:57:53;9.77;;;5.63;;
62633;SDS011;48704;50.534;6.442;2023-06-14T03:00:19;8.15;;;5.97;;
62633;SDS011;48704;50.534;6.442;2023-06-14T03:02:45;7.70;;;5.88;;
62633;SDS011;48704;50.534;6.442;2023-06-14T03:05:10;10.27;;;6.30;;
62633;SDS011;48704;50.534;6.442;2023-06-14T03:07:36;9.98;;;6.90;;
62633;SDS011;48704;50.534;6.442;2023-06-14T03:10:05;9.25;;;6.35;;
62633;SDS011;48704;50.534;6.442;2023-06-14T03:12:33;8.30;;;5.85;;
62633;SDS011;48704;50.534;6.442;2023-06-14T03:14:58;7.88;;;5.75;;
62633;SDS011;48704;50.534;6.442;2023-06-14T03:17:26;8.10;;;6.30;;
62633;SDS011;48704;50.534;6.442;2023-06-14T03:19:54;8.63;;;6.65;;
62633;SDS011;48704;50.534;6.442;2023-06-14T03:22:20;10.63;;;6.57;;
62633;SDS011;48704;50.534;6.442;2023-06-14T03:24:46;9.10;;;6.32;;
62633;SDS011;48704;50.534;6.442;2023-06-14T03:27:12;10.07;;;6.18;;
62633;SDS011;48704;50.534;6.442;2023-06-14T03:29:37;10.70;;;6.75;;
62633;SDS011;48704;50.534;6.442;2023-06-14T03:32:03;10.55;;;6.72;;
62633;SDS011;48704;50.534;6.442;2023-06-14T03:34:28;8.23;;;6.22;;
62633;SDS011;48704;50.534;6.442;2023-06-14T03:36:54;7.30;;;5.75;;
62633;SDS011;48704;50.534;6.442;2023-06-14T03:39:19;7.82;;;6.15;;
62633;SDS011;48704;50.534;6.442;2023-06-14T03:41:45;10.98;;;6.35;;
62633;SDS011;48704;50.534;6.442;2023-06-14T03:44:11;10.13;;;6.03;;
62633;SDS011;48704;50.534;6.442;2023-06-14T03:46:36;8.68;;;6.43;;
62633;SDS011;48704;50.534;6.442;2023-06-14T03:49:01;10.73;;;6.35;;
62633;SDS011;48704;50.534;6.442;2023-06-14T03:51:27;8.65;;;6.32;;
62633;SDS011;48704;50.534;6.442;2023-06-14T03:53:53;10.27;;;6.22;;
62633;SDS011;48704;50.534;6.442;2023-06-14T03:56:20;9.50;;;5.38;;
62633;SDS011;48704;50.534;6.442;2023-06-14T03:58:45;9.50;;;6.00;;
62633;SDS011;48704;50.534;6.442;2023-06-14T04:01:10;8.95;;;6.65;;
62633;SDS011;48704;50.534;6.442;2023-06-14T04:03:37;9.25;;;6.38;;
62633;SDS011;48704;50.534;6.442;2023-06-14T04:06:03;8.10;;;5.70;;
62633;SDS011;48704;50.534;6.442;2023-06-14T04:08:30;9.82;;;5.97;;
62633;SDS011;48704;50.534;6.442;2023-06-14T04:10:55;8.55;;;5.85;;
62633;SDS011;48704;50.534;6.442;2023-06-14T04:13:21;9.25;;;6.03;;
62633;SDS011;48704;50.534;6.442;2023-06-14T04:15:46;7.85;;;5.68;;
62633;SDS011;48704;50.534;6.442;2023-06-14T04:18:12;10.05;;;5.80;;
62633;SDS011;48704;50.534;6.442;2023-06-14T04:20:37;7.75;;;5.90;;
62633;SDS011;48704;50.534;6.442;2023-06-14T04:23:13;8.13;;;5.93;;
62633;SDS011;48704;50.534;6.442;2023-06-14T04:25:40;8.23;;;5.63;;
62633;SDS011;48704;50.534;6.442;2023-06-14T04:28:05;12.80;;;8.15;;
62633;SDS011;48704;50.534;6.442;2023-06-14T04:30:34;10.00;;;6.30;;
62633;SDS011;48704;50.534;6.442;2023-06-14T04:33:00;10.48;;;6.85;;
62633;SDS011;48704;50.534;6.442;2023-06-14T04:35:25;7.68;;;5.85;;
62633;SDS011;48704;50.534;6.442;2023-06-14T04:37:50;13.38;;;5.90;;
62633;SDS011;48704;50.534;6.442;2023-06-14T04:40:15;8.85;;;5.93;;
62633;SDS011;48704;50.534;6.442;2023-06-14T04:42:42;9.35;;;6.45;;
62633;SDS011;48704;50.534;6.442;2023-06-14T04:45:09;7.63;;;5.88;;
62633;SDS011;48704;50.534;6.442;2023-06-14T04:47:36;7.82;;;6.03;;
62633;SDS011;48704;50.534;6.442;2023-06-14T04:50:02;9.02;;;6.20;;
62633;SDS011;48704;50.534;6.442;2023-06-14T04:52:28;10.77;;;6.45;;
62633;SDS011;48704;50.534;6.442;2023-06-14T04:54:54;9.80;;;5.78;;
62633;SDS011;48704;50.534;6.442;2023-06-14T04:57:20;9.05;;;6.13;;
62633;SDS011;48704;50.534;6.442;2023-06-14T04:59:47;9.52;;;6.15;;
62633;SDS011;48704;50.534;6.442;2023-06-14T05:02:12;10.63;;;6.40;;
62633;SDS011;48704;50.534;6.442;2023-06-14T05:04:38;13.43;;;7.00;;
62633;SDS011;48704;50.534;6.442;2023-06-14T05:07:08;11.38;;;6.68;;
62633;SDS011;48704;50.534;6.442;2023-06-14T05:09:34;9.95;;;6.82;;
62633;SDS011;48704;50.534;6.442;2023-06-14T05:12:00;10.13;;;6.93;;
62633;SDS011;48704;50.534;6.442;2023-06-14T05:14:25;9.88;;;6.72;;
62633;SDS011;48704;50.534;6.442;2023-06-14T05:16:51;8.63;;;6.38;;
62633;SDS011;48704;50.534;6.442;2023-06-14T05:19:17;8.70;;;6.65;;
62633;SDS011;48704;50.534;6.442;2023-06-14T05:21:43;8.40;;;6.63;;
62633;SDS011;48704;50.534;6.442;2023-06-14T05:24:09;8.43;;;6.10;;
62633;SDS011;48704;50.534;6.442;2023-06-14T05:26:34;7.85;;;6.55;;
62633;SDS011;48704;50.534;6.442;2023-06-14T05:29:00;8.63;;;6.60;;
62633;SDS011;48704;50.534;6.442;2023-06-14T05:31:26;9.23;;;7.05;;
62633;SDS011;48704;50.534;6.442;2023-06-14T05:33:53;8.93;;;7.20;;
62633;SDS011;48704;50.534;6.442;2023-06-14T05:36:22;9.65;;;7.22;;
62633;SDS011;48704;50.534;6.442;2023-06-14T05:38:47;8.07;;;6.13;;
62633;SDS011;48704;50.534;6.442;2023-06-14T05:41:13;10.40;;;6.75;;
62633;SDS011;48704;50.534;6.442;2023-06-14T05:43:38;9.05;;;6.10;;
62633;SDS011;48704;50.534;6.442;2023-06-14T05:46:03;8.95;;;6.25;;
62633;SDS011;48704;50.534;6.442;2023-06-14T05:48:30;10.02;;;7.65;;
62633;SDS011;48704;50.534;6.442;2023-06-14T05:50:55;11.68;;;6.97;;
62633;SDS011;48704;50.534;6.442;2023-06-14T05:53:21;8.80;;;6.57;;
62633;SDS011;48704;50.534;6.442;2023-06-14T05:55:46;7.90;;;6.47;;
62633;SDS011;48704;50.534;6.442;2023-06-14T05:58:11;8.73;;;6.47;;
62633;SDS011;48704;50.534;6.442;2023-06-14T06:00:38;8.02;;;6.47;;
62633;SDS011;48704;50.534;6.442;2023-06-14T06:03:04;8.32;;;6.65;;
62633;SDS011;48704;50.534;6.442;2023-06-14T06:05:29;8.38;;;5.97;;
62633;SDS011;48704;50.534;6.442;2023-06-14T06:07:55;9.68;;;6.32;;
62633;SDS011;48704;50.534;6.442;2023-06-14T06:10:20;9.07;;;5.93;;
62633;SDS011;48704;50.534;6.442;2023-06-14T06:12:46;8.45;;;5.82;;
62633;SDS011;48704;50.534;6.442;2023-06-14T06:15:13;9.20;;;6.38;;
62633;SDS011;48704;50.534;6.442;2023-06-14T06:17:39;7.45;;;5.82;;
62633;SDS011;48704;50.534;6.442;2023-06-14T06:20:05;8.43;;;6.10;;
62633;SDS011;48704;50.534;6.442;2023-06-14T06:22:33;9.00;;;5.40;;
62633;SDS011;48704;50.534;6.442;2023-06-14T06:24:59;7.78;;;5.55;;
62633;SDS011;48704;50.534;6.442;2023-06-14T06:27:24;9.57;;;5.55;;
62633;SDS011;48704;50.534;6.442;2023-06-14T06:29:49;8.13;;;5.70;;
62633;SDS011;48704;50.534;6.442;2023-06-14T06:32:15;7.80;;;5.07;;
62633;SDS011;48704;50.534;6.442;2023-06-14T06:34:40;9.82;;;5.47;;
62633;SDS011;48704;50.534;6.442;2023-06-14T06:37:06;7.20;;;4.82;;
62633;SDS011;48704;50.534;6.442;2023-06-14T06:39:31;8.25;;;5.90;;
62633;SDS011;48704;50.534;6.442;2023-06-14T06:41:56;7.78;;;5.47;;
62633;SDS011;48704;50.534;6.442;2023-06-14T06:44:22;8.65;;;5.80;;
62633;SDS011;48704;50.534;6.442;2023-06-14T06:46:47;8.38;;;5.75;;
62633;SDS011;48704;50.534;6.442;2023-06-14T06:49:13;9.90;;;5.22;;
62633;SDS011;48704;50.534;6.442;2023-06-14T06:51:42;9.45;;;5.50;;
62633;SDS011;48704;50.534;6.442;2023-06-14T06:54:10;6.30;;;5.03;;
62633;SDS011;48704;50.534;6.442;2023-06-14T06:56:36;7.78;;;5.10;;
62633;SDS011;48704;50.534;6.442;2023-06-14T06:59:01;6.05;;;4.70;;
62633;SDS011;48704;50.534;6.442;2023-06-14T07:01:27;7.20;;;5.07;;
62633;SDS011;48704;50.534;6.442;2023-06-14T07:03:54;10.20;;;5.57;;
62633;SDS011;48704;50.534;6.442;2023-06-14T07:06:22;6.65;;;4.70;;
62633;SDS011;48704;50.534;6.442;2023-06-14T07:08:47;6.57;;;4.68;;
62633;SDS011;48704;50.534;6.442;2023-06-14T07:11:15;11.00;;;6.60;;
62633;SDS011;48704;50.534;6.442;2023-06-14T07:13:41;8.68;;;5.53;;
62633;SDS011;48704;50.534;6.442;2023-06-14T07:16:06;7.55;;;5.00;;
62633;SDS011;48704;50.534;6.442;2023-06-14T07:18:31;10.25;;;5.45;;
62633;SDS011;48704;50.534;6.442;2023-06-14T07:20:57;7.70;;;5.13;;
62633;SDS011;48704;50.534;6.442;2023-06-14T07:23:23;9.20;;;5.20;;
62633;SDS011;48704;50.534;6.442;2023-06-14T07:25:48;9.52;;;4.95;;
62633;SDS011;48704;50.534;6.442;2023-06-14T07:28:13;7.32;;;5.15;;
62633;SDS011;48704;50.534;6.442;2023-06-14T07:30:39;8.10;;;5.63;;
62633;SDS011;48704;50.534;6.442;2023-06-14T07:33:04;9.35;;;5.40;;
62633;SDS011;48704;50.534;6.442;2023-06-14T07:35:30;10.23;;;5.97;;
62633;SDS011;48704;50.534;6.442;2023-06-14T07:37:56;9.70;;;5.75;;
62633;SDS011;48704;50.534;6.442;2023-06-14T07:40:21;9.43;;;5.40;;
62633;SDS011;48704;50.534;6.442;2023-06-14T07:42:46;8.07;;;5.40;;
62633;SDS011;48704;50.534;6.442;2023-06-14T07:45:13;8.40;;;5.65;;
62633;SDS011;48704;50.534;6.442;2023-06-14T07:47:39;7.82;;;5.20;;
62633;SDS011;48704;50.534;6.442;2023-06-14T07:50:05;8.25;;;5.38;;
62633;SDS011;48704;50.534;6.442;2023-06-14T07:52:30;8.65;;;5.25;;
62633;SDS011;48704;50.534;6.442;2023-06-14T07:54:56;10.93;;;5.80;;
62633;SDS011;48704;50.534;6.442;2023-06-14T07:57:21;6.60;;;4.82;;
62633;SDS011;48704;50.534;6.442;2023-06-14T07:59:47;9.25;;;5.07;;
62633;SDS011;48704;50.534;6.442;2023-06-14T08:02:12;7.40;;;4.95;;
62633;SDS011;48704;50.534;6.442;2023-06-14T08:04:38;8.30;;;5.28;;
62633;SDS011;48704;50.534;6.442;2023-06-14T08:07:03;9.82;;;5.22;;
62633;SDS011;48704;50.534;6.442;2023-06-14T08:09:29;7.40;;;4.95;;
62633;SDS011;48704;50.534;6.442;2023-06-14T08:11:55;11.27;;;5.63;;
62633;SDS011;48704;50.534;6.442;2023-06-14T08:14:21;7.85;;;4.47;;
62633;SDS011;48704;50.534;6.442;2023-06-14T08:16:47;5.53;;;4.45;;
62633;SDS011;48704;50.534;6.442;2023-06-14T08:19:12;9.35;;;5.05;;
62633;SDS011;48704;50.534;6.442;2023-06-14T08:21:37;9.13;;;4.90;;
62633;SDS011;48704;50.534;6.442;2023-06-14T08:24:02;8.05;;;4.50;;
62633;SDS011;48704;50.534;6.442;2023-06-14T08:26:29;6.47;;;4.93;;
62633;SDS011;48704;50.534;6.442;2023-06-14T08:28:55;7.28;;;4.50;;
62633;SDS011;48704;50.534;6.442;2023-06-14T08:31:21;8.95;;;4.55;;
62633;SDS011;48704;50.534;6.442;2023-06-14T08:33:46;6.65;;;4.13;;
62633;SDS011;48704;50.534;6.442;2023-06-14T08:36:11;10.77;;;5.05;;
62633;SDS011;48704;50.534;6.442;2023-06-14T08:38:37;6.28;;;4.47;;
62633;SDS011;48704;50.534;6.442;2023-06-14T08:41:03;8.52;;;4.13;;
62633;SDS011;48704;50.534;6.442;2023-06-14T08:43:31;7.72;;;4.13;;
62633;SDS011;48704;50.534;6.442;2023-06-14T08:46:00;6.22;;;4.28;;
62633;SDS011;48704;50.534;6.442;2023-06-14T08:48:27;6.13;;;4.22;;
62633;SDS011;48704;50.534;6.442;2023-06-14T08:50:56;7.03;;;4.05;;
62633;SDS011;48704;50.534;6.442;2023-06-14T08:53:27;9.23;;;4.20;;
62633;SDS011;48704;50.534;6.442;2023-06-14T08:55:53;8.00;;;4.40;;
62633;SDS011;48704;50.534;6.442;2023-06-14T08:58:20;8.52;;;4.90;;
62633;SDS011;48704;50.534;6.442;2023-06-14T09:00:49;6.70;;;3.92;;
62633;SDS011;48704;50.534;6.442;2023-06-14T09:03:15;6.40;;;3.55;;
62633;SDS011;48704;50.534;6.442;2023-06-14T09:05:40;6.05;;;3.72;;
62633;SDS011;48704;50.534;6.442;2023-06-14T09:08:06;8.25;;;3.92;;
62633;SDS011;48704;50.534;6.442;2023-06-14T09:10:31;5.70;;;3.63;;
62633;SDS011;48704;50.534;6.442;2023-06-14T09:13:02;7.22;;;3.15;;
62633;SDS011;48704;50.534;6.442;2023-06-14T09:15:28;4.65;;;3.17;;
62633;SDS011;48704;50.534;6.442;2023-06-14T09:17:54;5.72;;;3.40;;
62633;SDS011;48704;50.534;6.442;2023-06-14T09:20:20;6.40;;;3.28;;
62633;SDS011;48704;50.534;6.442;2023-06-14T09:22:45;5.97;;;3.00;;
62633;SDS011;48704;50.534;6.442;2023-06-14T09:25:11;6.40;;;3.28;;
62633;SDS011;48704;50.534;6.442;2023-06-14T09:27:40;6.25;;;3.38;;
62633;SDS011;48704;50.534;6.442;2023-06-14T09:30:08;6.97;;;3.05;;
62633;SDS011;48704;50.534;6.442;2023-06-14T09:32:41;6.43;;;3.75;;
62633;SDS011;48704;50.534;6.442;2023-06-14T09:35:06;5.28;;;3.13;;
62633;SDS011;48704;50.534;6.442;2023-06-14T09:37:33;6.18;;;3.17;;
62633;SDS011;48704;50.534;6.442;2023-06-14T09:39:59;8.02;;;3.17;;
62633;SDS011;48704;50.534;6.442;2023-06-14T09:42:25;4.68;;;3.17;;
62633;SDS011;48704;50.534;6.442;2023-06-14T09:44:51;5.22;;;2.97;;
62633;SDS011;48704;50.534;6.442;2023-06-14T09:47:18;8.40;;;3.40;;
62633;SDS011;48704;50.534;6.442;2023-06-14T09:49:44;6.13;;;3.42;;
62633;SDS011;48704;50.534;6.442;2023-06-14T09:52:17;6.65;;;3.30;;
62633;SDS011;48704;50.534;6.442;2023-06-14T09:57:11;7.63;;;3.22;;
62633;SDS011;48704;50.534;6.442;2023-06-14T09:59:39;4.97;;;3.25;;
62633;SDS011;48704;50.534;6.442;2023-06-14T10:02:07;6.32;;;2.90;;
62633;SDS011;48704;50.534;6.442;2023-06-14T10:04:50;6.03;;;3.08;;
62633;SDS011;48704;50.534;6.442;2023-06-14T10:07:53;6.93;;;2.90;;
62633;SDS011;48704;50.534;6.442;2023-06-14T10:10:25;6.70;;;3.17;;
62633;SDS011;48704;50.534;6.442;2023-06-14T10:12:50;5.55;;;3.17;;
62633;SDS011;48704;50.534;6.442;2023-06-14T10:15:24;5.95;;;2.83;;
62633;SDS011;48704;50.534;6.442;2023-06-14T10:18:02;4.82;;;2.55;;
62633;SDS011;48704;50.534;6.442;2023-06-14T10:23:43;5.30;;;2.90;;
62633;SDS011;48704;50.534;6.442;2023-06-14T10:26:17;6.47;;;2.58;;
62633;SDS011;48704;50.534;6.442;2023-06-14T10:28:50;5.55;;;2.60;;
62633;SDS011;48704;50.534;6.442;2023-06-14T10:31:23;3.95;;;2.20;;
62633;SDS011;48704;50.534;6.442;2023-06-14T10:34:06;3.60;;;2.15;;
62633;SDS011;48704;50.534;6.442;2023-06-14T10:36:31;5.18;;;2.25;;
62633;SDS011;48704;50.534;6.442;2023-06-14T10:39:10;3.75;;;2.10;;
62633;SDS011;48704;50.534;6.442;2023-06-14T10:41:40;6.05;;;2.30;;
62633;SDS011;48704;50.534;6.442;2023-06-14T10:46:37;5.65;;;2.40;;
62633;SDS011;48704;50.534;6.442;2023-06-14T10:49:03;4.82;;;2.38;;
62633;SDS011;48704;50.534;6.442;2023-06-14T10:51:29;5.38;;;2.00;;
62633;SDS011;48704;50.534;6.442;2023-06-14T10:53:55;3.80;;;2.20;;
62633;SDS011;48704;50.534;6.442;2023-06-14T10:56:28;4.80;;;2.63;;
62633;SDS011;48704;50.534;6.442;2023-06-14T10:58:56;3.90;;;2.28;;
62633;SDS011;48704;50.534;6.442;2023-06-14T11:01:25;4.05;;;2.10;;
62633;SDS011;48704;50.534;6.442;2023-06-14T11:03:54;5.00;;;2.43;;
62633;SDS011;48704;50.534;6.442;2023-06-14T11:06:22;6.22;;;2.90;;
62633;SDS011;48704;50.534;6.442;2023-06-14T11:11:41;6.03;;;2.60;;
62633;SDS011;48704;50.534;6.442;2023-06-14T11:14:07;3.95;;;2.38;;
62633;SDS011;48704;50.534;6.442;2023-06-14T11:16:33;4.50;;;2.72;;
62633;SDS011;48704;50.534;6.442;2023-06-14T11:18:59;4.28;;;2.30;;
62633;SDS011;48704;50.534;6.442;2023-06-14T11:21:25;4.32;;;2.15;;
62633;SDS011;48704;50.534;6.442;2023-06-14T11:23:56;4.00;;;2.20;;
62633;SDS011;48704;50.534;6.442;2023-06-14T11:26:30;3.95;;;2.33;;
62633;SDS011;48704;50.534;6.442;2023-06-14T11:28:58;4.32;;;2.20;;
62633;SDS011;48704;50.534;6.442;2023-06-14T11:31:25;3.70;;;2.20;;
62633;SDS011;48704;50.534;6.442;2023-06-14T11:33:53;4.93;;;2.30;;
62633;SDS011;48704;50.534;6.442;2023-06-14T11:36:19;5.55;;;2.67;;
62633;SDS011;48704;50.534;6.442;2023-06-14T11:38:44;4.40;;;2.33;;
62633;SDS011;48704;50.534;6.442;2023-06-14T11:41:10;3.60;;;2.20;;
62633;SDS011;48704;50.534;6.442;2023-06-14T11:43:35;3.30;;;1.90;;
62633;SDS011;48704;50.534;6.442;2023-06-14T11:46:01;3.13;;;2.30;;
62633;SDS011;48704;50.534;6.442;2023-06-14T11:48:40;3.53;;;2.10;;
62633;SDS011;48704;50.534;6.442;2023-06-14T11:51:07;4.95;;;2.30;;
62633;SDS011;48704;50.534;6.442;2023-06-14T11:53:32;5.25;;;2.00;;
62633;SDS011;48704;50.534;6.442;2023-06-14T11:55:58;3.53;;;2.40;;
62633;SDS011;48704;50.534;6.442;2023-06-14T11:58:23;4.38;;;2.33;;
62633;SDS011;48704;50.534;6.442;2023-06-14T12:00:50;3.63;;;2.15;;
62633;SDS011;48704;50.534;6.442;2023-06-14T12:03:16;4.57;;;2.45;;
62633;SDS011;48704;50.534;6.442;2023-06-14T12:05:42;7.65;;;2.55;;
62633;SDS011;48704;50.534;6.442;2023-06-14T12:08:08;4.30;;;2.40;;
62633;SDS011;48704;50.534;6.442;2023-06-14T12:10:40;5.40;;;2.30;;
62633;SDS011;48704;50.534;6.442;2023-06-14T12:13:09;3.70;;;2.10;;
62633;SDS011;48704;50.534;6.442;2023-06-14T12:15:35;4.45;;;2.20;;
62633;SDS011;48704;50.534;6.442;2023-06-14T12:18:00;5.50;;;2.40;;
62633;SDS011;48704;50.534;6.442;2023-06-14T12:20:29;4.00;;;2.20;;
62633;SDS011;48704;50.534;6.442;2023-06-14T12:22:56;5.30;;;2.67;;
62633;SDS011;48704;50.534;6.442;2023-06-14T12:25:27;6.20;;;2.47;;
62633;SDS011;48704;50.534;6.442;2023-06-14T12:27:58;4.72;;;2.60;;
62633;SDS011;48704;50.534;6.442;2023-06-14T12:30:24;3.65;;;2.15;;
62633;SDS011;48704;50.534;6.442;2023-06-14T12:32:49;3.92;;;2.05;;
62633;SDS011;48704;50.534;6.442;2023-06-14T12:35:16;4.57;;;2.10;;
62633;SDS011;48704;50.534;6.442;2023-06-14T12:37:42;5.78;;;2.33;;
62633;SDS011;48704;50.534;6.442;2023-06-14T12:40:07;5.95;;;2.13;;
62633;SDS011;48704;50.534;6.442;2023-06-14T12:42:33;5.60;;;2.25;;
62633;SDS011;48704;50.534;6.442;2023-06-14T12:45:01;4.53;;;2.17;;
62633;SDS011;48704;50.534;6.442;2023-06-14T12:47:28;3.75;;;2.05;;
62633;SDS011;48704;50.534;6.442;2023-06-14T12:49:53;4.70;;;2.17;;
62633;SDS011;48704;50.534;6.442;2023-06-14T12:52:18;3.40;;;2.03;;
62633;SDS011;48704;50.534;6.442;2023-06-14T12:54:43;3.37;;;1.93;;
62633;SDS011;48704;50.534;6.442;2023-06-14T12:57:09;3.85;;;2.15;;
62633;SDS011;48704;50.534;6.442;2023-06-14T12:59:35;5.90;;;2.20;;
62633;SDS011;48704;50.534;6.442;2023-06-14T13:02:16;4.10;;;2.00;;
62633;SDS011;48704;50.534;6.442;2023-06-14T13:04:43;4.80;;;2.13;;
62633;SDS011;48704;50.534;6.442;2023-06-14T13:07:08;3.42;;;2.13;;
62633;SDS011;48704;50.534;6.442;2023-06-14T13:09:35;4.38;;;2.40;;
62633;SDS011;48704;50.534;6.442;2023-06-14T13:12:01;4.97;;;2.40;;
62633;SDS011;48704;50.534;6.442;2023-06-14T13:14:26;3.60;;;2.25;;
62633;SDS011;48704;50.534;6.442;2023-06-14T13:16:52;3.55;;;1.90;;
62633;SDS011;48704;50.534;6.442;2023-06-14T13:19:17;5.93;;;2.20;;
62633;SDS011;48704;50.534;6.442;2023-06-14T13:21:42;3.60;;;1.95;;
62633;SDS011;48704;50.534;6.442;2023-06-14T13:24:07;4.20;;;2.00;;
62633;SDS011;48704;50.534;6.442;2023-06-14T13:26:33;5.65;;;2.08;;
62633;SDS011;48704;50.534;6.442;2023-06-14T13:28:59;3.20;;;2.00;;
62633;SDS011;48704;50.534;6.442;2023-06-14T13:31:24;3.05;;;1.73;;
62633;SDS011;48704;50.534;6.442;2023-06-14T13:33:50;4.05;;;1.90;;
62633;SDS011;48704;50.534;6.442;2023-06-14T13:36:15;3.55;;;1.92;;
62633;SDS011;48704;50.534;6.442;2023-06-14T13:38:41;4.63;;;2.13;;
62633;SDS011;48704;50.534;6.442;2023-06-14T13:41:06;3.75;;;2.10;;
62633;SDS011;48704;50.534;6.442;2023-06-14T13:43:31;5.78;;;2.30;;
62633;SDS011;48704;50.534;6.442;2023-06-14T13:45:56;3.80;;;2.20;;
62633;SDS011;48704;50.534;6.442;2023-06-14T13:48:22;7.93;;;2.17;;
62633;SDS011;48704;50.534;6.442;2023-06-14T13:50:47;3.72;;;2.00;;
62633;SDS011;48704;50.534;6.442;2023-06-14T13:53:12;4.68;;;2.10;;
62633;SDS011;48704;50.534;6.442;2023-06-14T13:55:39;4.47;;;2.03;;
62633;SDS011;48704;50.534;6.442;2023-06-14T13:58:04;2.75;;;1.90;;
62633;SDS011;48704;50.534;6.442;2023-06-14T14:00:29;3.63;;;1.92;;
62633;SDS011;48704;50.534;6.442;2023-06-14T14:02:55;3.42;;;2.10;;
62633;SDS011;48704;50.534;6.442;2023-06-14T14:05:22;5.97;;;2.10;;
62633;SDS011;48704;50.534;6.442;2023-06-14T14:07:51;3.80;;;2.10;;
62633;SDS011;48704;50.534;6.442;2023-06-14T14:10:17;2.83;;;1.70;;
62633;SDS011;48704;50.534;6.442;2023-06-14T14:12:45;3.42;;;1.83;;
62633;SDS011;48704;50.534;6.442;2023-06-14T14:15:11;7.18;;;2.28;;
62633;SDS011;48704;50.534;6.442;2023-06-14T14:17:39;3.47;;;2.08;;
62633;SDS011;48704;50.534;6.442;2023-06-14T14:20:05;5.78;;;2.05;;
62633;SDS011;48704;50.534;6.442;2023-06-14T14:22:31;4.10;;;2.22;;
62633;SDS011;48704;50.534;6.442;2023-06-14T14:24:57;3.70;;;1.92;;
62633;SDS011;48704;50.534;6.442;2023-06-14T14:27:22;3.83;;;2.00;;
62633;SDS011;48704;50.534;6.442;2023-06-14T14:29:47;3.13;;;2.10;;
62633;SDS011;48704;50.534;6.442;2023-06-14T14:32:13;2.90;;;1.90;;
62633;SDS011;48704;50.534;6.442;2023-06-14T14:34:39;3.35;;;2.20;;
62633;SDS011;48704;50.534;6.442;2023-06-14T14:37:05;3.22;;;1.83;;
62633;SDS011;48704;50.534;6.442;2023-06-14T14:39:30;4.00;;;2.22;;
62633;SDS011;48704;50.534;6.442;2023-06-14T14:41:55;3.00;;;1.90;;
62633;SDS011;48704;50.534;6.442;2023-06-14T14:44:21;2.90;;;1.80;;
62633;SDS011;48704;50.534;6.442;2023-06-14T14:46:46;2.90;;;2.00;;
62633;SDS011;48704;50.534;6.442;2023-06-14T14:49:11;4.63;;;1.98;;
62633;SDS011;48704;50.534;6.442;2023-06-14T14:51:37;4.20;;;1.92;;
62633;SDS011;48704;50.534;6.442;2023-06-14T14:54:03;2.85;;;1.83;;
62633;SDS011;48704;50.534;6.442;2023-06-14T14:56:29;5.25;;;1.88;;
62633;SDS011;48704;50.534;6.442;2023-06-14T14:58:54;5.95;;;1.77;;